sensor_id;sensor_type;location;lat;lon;timestamp;pressure;altitude;pressure_sealevel;temperature;humidity
56270;BME280;42176;43.240;27.880;2022-07-22T00:02:25;100073.56;;;19.62;69.08
56270;BME280;42176;43.240;27.880;2022-07-22T00:04:50;100080.88;;;19.60;68.86
56270;BME280;42176;43.240;27.880;2022-07-22T00:07:16;100080.94;;;19.59;68.96
56270;BME280;42176;43.240;27.880;2022-07-22T00:09:41;100077.59;;;19.55;69.12
56270;BME280;42176;43.240;27.880;2022-07-22T00:12:07;100075.00;;;19.54;70.52
56270;BME280;42176;43.240;27.880;2022-07-22T00:14:33;100083.94;;;19.54;71.54
56270;BME280;42176;43.240;27.880;2022-07-22T00:16:58;100086.78;;;19.51;71.76
56270;BME280;42176;43.240;27.880;2022-07-22T00:19:24;100095.03;;;19.48;71.66
56270;BME280;42176;43.240;27.880;2022-07-22T00:21:51;100093.41;;;19.45;72.01
56270;BME280;42176;43.240;27.880;2022-07-22T00:24:17;100090.03;;;19.42;72.38
56270;BME280;42176;43.240;27.880;2022-07-22T00:26:42;100093.75;;;19.39;71.77
56270;BME280;42176;43.240;27.880;2022-07-22T00:29:08;100093.09;;;19.36;70.98
56270;BME280;42176;43.240;27.880;2022-07-22T00:31:34;100096.72;;;19.35;71.11
56270;BME280;42176;43.240;27.880;2022-07-22T00:34:00;100085.03;;;19.36;72.01
56270;BME280;42176;43.240;27.880;2022-07-22T00:36:29;100082.16;;;19.39;72.87
56270;BME280;42176;43.240;27.880;2022-07-22T00:38:56;100082.34;;;19.36;73.77
56270;BME280;42176;43.240;27.880;2022-07-22T00:41:22;100086.16;;;19.31;73.40
56270;BME280;42176;43.240;27.880;2022-07-22T00:46:17;100088.09;;;19.29;75.45
56270;BME280;42176;43.240;27.880;2022-07-22T00:48:42;100088.09;;;19.29;76.66
56270;BME280;42176;43.240;27.880;2022-07-22T00:51:08;100078.38;;;19.27;78.82
56270;BME280;42176;43.240;27.880;2022-07-22T00:53:34;100077.34;;;19.29;79.66
56270;BME280;42176;43.240;27.880;2022-07-22T00:55:59;100096.19;;;19.44;80.93
56270;BME280;42176;43.240;27.880;2022-07-22T00:58:25;100093.22;;;19.48;81.84
56270;BME280;42176;43.240;27.880;2022-07-22T01:00:51;100086.63;;;19.54;82.32
56270;BME280;42176;43.240;27.880;2022-07-22T01:03:16;100086.25;;;19.60;82.05
56270;BME280;42176;43.240;27.880;2022-07-22T01:05:42;100083.28;;;19.65;82.10
56270;BME280;42176;43.240;27.880;2022-07-22T01:08:08;100094.41;;;19.73;82.51
56270;BME280;42176;43.240;27.880;2022-07-22T01:10:34;100076.47;;;19.74;82.44
56270;BME280;42176;43.240;27.880;2022-07-22T01:12:59;100079.34;;;19.85;81.77
56270;BME280;42176;43.240;27.880;2022-07-22T01:15:24;100075.44;;;19.91;81.13
56270;BME280;42176;43.240;27.880;2022-07-22T01:17:50;100074.31;;;19.95;80.52
56270;BME280;42176;43.240;27.880;2022-07-22T01:20:16;100076.72;;;20.00;80.20
56270;BME280;42176;43.240;27.880;2022-07-22T01:22:41;100074.59;;;20.05;79.10
56270;BME280;42176;43.240;27.880;2022-07-22T01:25:07;100072.47;;;20.10;78.50
56270;BME280;42176;43.240;27.880;2022-07-22T01:27:32;100073.16;;;20.14;77.02
56270;BME280;42176;43.240;27.880;2022-07-22T01:29:58;100064.78;;;20.18;75.07
56270;BME280;42176;43.240;27.880;2022-07-22T01:32:24;100068.25;;;20.20;74.42
56270;BME280;42176;43.240;27.880;2022-07-22T01:34:49;100064.38;;;20.24;74.29
56270;BME280;42176;43.240;27.880;2022-07-22T01:37:15;100069.56;;;20.28;73.99
56270;BME280;42176;43.240;27.880;2022-07-22T01:39:40;100057.56;;;20.33;73.76
56270;BME280;42176;43.240;27.880;2022-07-22T01:42:06;100056.50;;;20.36;73.63
56270;BME280;42176;43.240;27.880;2022-07-22T01:44:33;100058.00;;;20.40;73.67
56270;BME280;42176;43.240;27.880;2022-07-22T01:46:58;100060.63;;;20.42;73.57
56270;BME280;42176;43.240;27.880;2022-07-22T01:49:24;100054.38;;;20.41;73.72
56270;BME280;42176;43.240;27.880;2022-07-22T01:51:50;100061.47;;;20.42;73.74
56270;BME280;42176;43.240;27.880;2022-07-22T01:54:15;100059.75;;;20.41;74.11
56270;BME280;42176;43.240;27.880;2022-07-22T01:56:41;100059.97;;;20.38;74.09
56270;BME280;42176;43.240;27.880;2022-07-22T01:59:06;100063.63;;;20.37;73.89
56270;BME280;42176;43.240;27.880;2022-07-22T02:01:32;100065.34;;;20.38;73.87
56270;BME280;42176;43.240;27.880;2022-07-22T02:03:58;100064.59;;;20.36;73.27
56270;BME280;42176;43.240;27.880;2022-07-22T02:06:24;100042.66;;;20.28;72.82
56270;BME280;42176;43.240;27.880;2022-07-22T02:08:49;100058.44;;;20.34;73.08
56270;BME280;42176;43.240;27.880;2022-07-22T02:11:15;100064.19;;;20.28;73.50
56270;BME280;42176;43.240;27.880;2022-07-22T02:13:40;100068.06;;;20.23;73.02
56270;BME280;42176;43.240;27.880;2022-07-22T02:16:05;100068.44;;;20.17;72.87
56270;BME280;42176;43.240;27.880;2022-07-22T02:18:31;100068.81;;;20.11;72.78
56270;BME280;42176;43.240;27.880;2022-07-22T02:20:56;100072.69;;;20.07;72.79
56270;BME280;42176;43.240;27.880;2022-07-22T02:23:22;100081.91;;;20.03;72.77
56270;BME280;42176;43.240;27.880;2022-07-22T02:25:47;100080.53;;;19.96;72.94
56270;BME280;42176;43.240;27.880;2022-07-22T02:28:13;100061.50;;;19.84;73.10
56270;BME280;42176;43.240;27.880;2022-07-22T02:30:38;100077.63;;;19.84;73.83
56270;BME280;42176;43.240;27.880;2022-07-22T02:33:04;100066.56;;;19.74;74.23
56270;BME280;42176;43.240;27.880;2022-07-22T02:35:30;100075.41;;;19.76;74.20
56270;BME280;42176;43.240;27.880;2022-07-22T02:37:55;100078.38;;;19.72;74.08
56270;BME280;42176;43.240;27.880;2022-07-22T02:40:21;100077.63;;;19.70;73.13
56270;BME280;42176;43.240;27.880;2022-07-22T02:42:46;100074.44;;;19.63;73.09
56270;BME280;42176;43.240;27.880;2022-07-22T02:45:12;100056.25;;;19.52;73.00
56270;BME280;42176;43.240;27.880;2022-07-22T02:47:49;100072.22;;;19.55;73.01
56270;BME280;42176;43.240;27.880;2022-07-22T02:50:14;100065.09;;;19.54;72.60
56270;BME280;42176;43.240;27.880;2022-07-22T02:52:40;100067.03;;;19.52;73.13
56270;BME280;42176;43.240;27.880;2022-07-22T02:55:06;100059.84;;;19.53;72.71
56270;BME280;42176;43.240;27.880;2022-07-22T02:57:31;100065.09;;;19.54;72.07
56270;BME280;42176;43.240;27.880;2022-07-22T02:59:57;100064.16;;;19.55;72.13
56270;BME280;42176;43.240;27.880;2022-07-22T03:02:22;100075.50;;;19.60;72.06
56270;BME280;42176;43.240;27.880;2022-07-22T03:04:48;100070.63;;;19.67;71.20
56270;BME280;42176;43.240;27.880;2022-07-22T03:07:13;100079.25;;;19.72;71.15
56270;BME280;42176;43.240;27.880;2022-07-22T03:09:39;100077.16;;;19.77;71.12
56270;BME280;42176;43.240;27.880;2022-07-22T03:12:05;100074.16;;;19.82;70.98
56270;BME280;42176;43.240;27.880;2022-07-22T03:14:30;100073.81;;;19.88;71.43
56270;BME280;42176;43.240;27.880;2022-07-22T03:16:55;100075.38;;;19.92;71.28
56270;BME280;42176;43.240;27.880;2022-07-22T03:19:21;100073.44;;;19.95;71.24
56270;BME280;42176;43.240;27.880;2022-07-22T03:21:46;100055.78;;;19.90;70.49
56270;BME280;42176;43.240;27.880;2022-07-22T03:24:12;100064.88;;;20.02;69.83
56270;BME280;42176;43.240;27.880;2022-07-22T03:26:38;100069.22;;;20.05;70.52
56270;BME280;42176;43.240;27.880;2022-07-22T03:29:04;100064.63;;;20.07;70.29
56270;BME280;42176;43.240;27.880;2022-07-22T03:31:29;100076.88;;;20.11;70.23
56270;BME280;42176;43.240;27.880;2022-07-22T03:33:54;100073.81;;;20.17;70.47
56270;BME280;42176;43.240;27.880;2022-07-22T03:36:20;100073.63;;;20.35;70.80
56270;BME280;42176;43.240;27.880;2022-07-22T03:38:45;100069.28;;;20.89;68.63
56270;BME280;42176;43.240;27.880;2022-07-22T03:41:11;100064.03;;;21.40;66.61
56270;BME280;42176;43.240;27.880;2022-07-22T03:43:36;100070.69;;;21.88;64.82
56270;BME280;42176;43.240;27.880;2022-07-22T03:46:02;100075.28;;;22.38;63.48
56270;BME280;42176;43.240;27.880;2022-07-22T03:48:27;100069.22;;;22.84;61.67
56270;BME280;42176;43.240;27.880;2022-07-22T03:50:53;100063.06;;;23.31;60.59
56270;BME280;42176;43.240;27.880;2022-07-22T03:53:18;100078.53;;;23.76;58.88
56270;BME280;42176;43.240;27.880;2022-07-22T03:55:45;100063.59;;;24.17;57.29
56270;BME280;42176;43.240;27.880;2022-07-22T03:58:11;100060.31;;;24.57;55.48
56270;BME280;42176;43.240;27.880;2022-07-22T04:00:36;100060.03;;;24.95;54.73
56270;BME280;42176;43.240;27.880;2022-07-22T04:03:02;100063.44;;;25.29;53.46
56270;BME280;42176;43.240;27.880;2022-07-22T04:05:27;100056.88;;;25.64;52.58
56270;BME280;42176;43.240;27.880;2022-07-22T04:07:54;100066.19;;;26.03;51.48
56270;BME280;42176;43.240;27.880;2022-07-22T04:10:19;100067.84;;;26.46;50.55
56270;BME280;42176;43.240;27.880;2022-07-22T04:12:46;100062.22;;;26.88;49.85
56270;BME280;42176;43.240;27.880;2022-07-22T04:15:11;100053.66;;;27.23;48.47
56270;BME280;42176;43.240;27.880;2022-07-22T04:17:37;100060.22;;;27.69;46.86
56270;BME280;42176;43.240;27.880;2022-07-22T04:20:03;100066.97;;;28.13;45.79
56270;BME280;42176;43.240;27.880;2022-07-22T04:22:28;100060.41;;;28.61;44.30
56270;BME280;42176;43.240;27.880;2022-07-22T04:24:55;100058.91;;;29.13;43.23
56270;BME280;42176;43.240;27.880;2022-07-22T04:27:20;100049.19;;;29.73;42.53
56270;BME280;42176;43.240;27.880;2022-07-22T04:29:46;100058.34;;;30.25;41.09
56270;BME280;42176;43.240;27.880;2022-07-22T04:32:12;100051.31;;;30.57;40.91
56270;BME280;42176;43.240;27.880;2022-07-22T04:34:37;100053.13;;;30.91;40.36
56270;BME280;42176;43.240;27.880;2022-07-22T04:37:03;100055.22;;;31.22;40.32
56270;BME280;42176;43.240;27.880;2022-07-22T04:39:29;100063.06;;;31.66;39.71
56270;BME280;42176;43.240;27.880;2022-07-22T04:41:55;100063.16;;;32.14;38.66
56270;BME280;42176;43.240;27.880;2022-07-22T04:44:20;100066.22;;;32.68;37.44
56270;BME280;42176;43.240;27.880;2022-07-22T04:46:46;100064.56;;;33.13;36.71
56270;BME280;42176;43.240;27.880;2022-07-22T04:49:11;100058.66;;;33.63;36.12
56270;BME280;42176;43.240;27.880;2022-07-22T04:51:37;100070.00;;;34.13;34.91
56270;BME280;42176;43.240;27.880;2022-07-22T04:54:02;100071.78;;;34.51;34.11
56270;BME280;42176;43.240;27.880;2022-07-22T04:56:27;100059.00;;;34.95;32.79
56270;BME280;42176;43.240;27.880;2022-07-22T04:58:53;100068.59;;;35.05;32.72
56270;BME280;42176;43.240;27.880;2022-07-22T05:01:18;100077.38;;;35.37;32.18
56270;BME280;42176;43.240;27.880;2022-07-22T05:03:44;100065.72;;;35.57;31.78
56270;BME280;42176;43.240;27.880;2022-07-22T05:06:10;100072.81;;;36.02;31.75
56270;BME280;42176;43.240;27.880;2022-07-22T05:08:36;100070.28;;;36.42;30.70
56270;BME280;42176;43.240;27.880;2022-07-22T05:11:01;100082.13;;;36.84;30.29
56270;BME280;42176;43.240;27.880;2022-07-22T05:13:27;100078.78;;;37.02;29.71
56270;BME280;42176;43.240;27.880;2022-07-22T05:15:53;100079.69;;;37.16;27.85
56270;BME280;42176;43.240;27.880;2022-07-22T05:18:18;100081.78;;;37.01;25.47
56270;BME280;42176;43.240;27.880;2022-07-22T05:20:44;100082.69;;;37.28;24.15
56270;BME280;42176;43.240;27.880;2022-07-22T05:23:09;100092.03;;;37.34;23.98
56270;BME280;42176;43.240;27.880;2022-07-22T05:25:35;100081.78;;;37.01;23.66
56270;BME280;42176;43.240;27.880;2022-07-22T05:28:00;100080.09;;;37.27;24.34
56270;BME280;42176;43.240;27.880;2022-07-22T05:30:26;100070.53;;;37.23;24.35
56270;BME280;42176;43.240;27.880;2022-07-22T05:32:52;100065.22;;;37.01;22.80
56270;BME280;42176;43.240;27.880;2022-07-22T05:35:18;100082.16;;;36.91;23.47
56270;BME280;42176;43.240;27.880;2022-07-22T05:37:43;100079.69;;;37.16;22.66
56270;BME280;42176;43.240;27.880;2022-07-22T05:40:09;100072.91;;;37.66;21.82
56270;BME280;42176;43.240;27.880;2022-07-22T05:42:35;100072.47;;;37.69;21.34
56270;BME280;42176;43.240;27.880;2022-07-22T05:45:00;100070.13;;;37.86;20.86
56270;BME280;42176;43.240;27.880;2022-07-22T05:47:26;100078.34;;;38.20;21.02
56270;BME280;42176;43.240;27.880;2022-07-22T05:49:51;100083.00;;;38.40;19.90
56270;BME280;42176;43.240;27.880;2022-07-22T05:52:17;100078.38;;;38.72;20.20
56270;BME280;42176;43.240;27.880;2022-07-22T05:54:42;100081.19;;;38.65;19.77
56270;BME280;42176;43.240;27.880;2022-07-22T05:57:08;100080.16;;;38.98;19.53
56270;BME280;42176;43.240;27.880;2022-07-22T05:59:35;100080.16;;;38.98;19.93
56270;BME280;42176;43.240;27.880;2022-07-22T06:02:01;100089.63;;;39.48;19.02
56270;BME280;42176;43.240;27.880;2022-07-22T06:04:27;100082.31;;;39.28;18.64
56270;BME280;42176;43.240;27.880;2022-07-22T06:06:52;100079.84;;;39.71;17.89
56270;BME280;42176;43.240;27.880;2022-07-22T06:09:18;100093.03;;;40.38;18.01
56270;BME280;42176;43.240;27.880;2022-07-22T06:11:43;100075.91;;;39.60;17.65
56270;BME280;42176;43.240;27.880;2022-07-22T06:14:09;100077.50;;;40.12;17.12
56270;BME280;42176;43.240;27.880;2022-07-22T06:16:34;100081.09;;;40.19;17.55
56270;BME280;42176;43.240;27.880;2022-07-22T06:19:01;100084.63;;;40.26;17.31
56270;BME280;42176;43.240;27.880;2022-07-22T06:21:26;100071.41;;;40.03;16.42
56270;BME280;42176;43.240;27.880;2022-07-22T06:23:52;100073.00;;;38.84;18.34
56270;BME280;42176;43.240;27.880;2022-07-22T06:26:18;100097.69;;;39.31;17.78
56270;BME280;42176;43.240;27.880;2022-07-22T06:28:43;100095.81;;;40.19;17.28
56270;BME280;42176;43.240;27.880;2022-07-22T06:31:09;100089.44;;;40.87;17.05
56270;BME280;42176;43.240;27.880;2022-07-22T06:33:34;100096.41;;;41.08;16.21
56270;BME280;42176;43.240;27.880;2022-07-22T06:36:00;100076.63;;;41.28;16.26
56270;BME280;42176;43.240;27.880;2022-07-22T06:38:26;100065.41;;;41.23;15.90
56270;BME280;42176;43.240;27.880;2022-07-22T06:40:52;100079.72;;;41.62;16.50
56270;BME280;42176;43.240;27.880;2022-07-22T06:43:18;100076.78;;;41.33;15.71
56270;BME280;42176;43.240;27.880;2022-07-22T06:45:43;100084.56;;;41.55;15.84
56270;BME280;42176;43.240;27.880;2022-07-22T06:48:08;100076.34;;;41.84;15.69
56270;BME280;42176;43.240;27.880;2022-07-22T06:50:34;100066.53;;;41.03;15.49
56270;BME280;42176;43.240;27.880;2022-07-22T06:53:00;100075.38;;;40.82;16.46
56270;BME280;42176;43.240;27.880;2022-07-22T06:55:25;100074.94;;;40.85;15.13
56270;BME280;42176;43.240;27.880;2022-07-22T06:57:51;100078.91;;;41.07;15.53
56270;BME280;42176;43.240;27.880;2022-07-22T07:00:17;100069.09;;;41.83;14.16
56270;BME280;42176;43.240;27.880;2022-07-22T07:02:42;100069.69;;;41.97;13.56
56270;BME280;42176;43.240;27.880;2022-07-22T07:05:08;100058.78;;;41.83;13.38
56270;BME280;42176;43.240;27.880;2022-07-22T07:07:34;100070.06;;;41.53;15.34
56270;BME280;42176;43.240;27.880;2022-07-22T07:10:00;100068.28;;;40.86;15.46
56270;BME280;42176;43.240;27.880;2022-07-22T07:12:25;100071.53;;;41.13;15.15
56270;BME280;42176;43.240;27.880;2022-07-22T07:14:51;100068.13;;;40.80;15.21
56270;BME280;42176;43.240;27.880;2022-07-22T07:17:16;100070.19;;;40.55;15.62
56270;BME280;42176;43.240;27.880;2022-07-22T07:19:42;100073.72;;;40.62;15.40
56270;BME280;42176;43.240;27.880;2022-07-22T07:22:07;100067.34;;;40.43;14.87
56270;BME280;42176;43.240;27.880;2022-07-22T07:24:33;100074.00;;;40.91;14.44
56270;BME280;42176;43.240;27.880;2022-07-22T07:26:58;100066.72;;;41.08;14.46
56270;BME280;42176;43.240;27.880;2022-07-22T07:29:24;100077.09;;;41.13;14.47
56270;BME280;42176;43.240;27.880;2022-07-22T07:31:49;100074.09;;;40.96;15.17
56270;BME280;42176;43.240;27.880;2022-07-22T07:34:15;100058.16;;;41.22;14.19
56270;BME280;42176;43.240;27.880;2022-07-22T07:36:40;100080.28;;;40.98;14.06
56270;BME280;42176;43.240;27.880;2022-07-22T07:39:06;100077.75;;;40.66;14.16
56270;BME280;42176;43.240;27.880;2022-07-22T07:41:31;100077.91;;;40.53;14.52
56270;BME280;42176;43.240;27.880;2022-07-22T07:43:57;100066.03;;;40.45;14.04
56270;BME280;42176;43.240;27.880;2022-07-22T07:46:22;100088.56;;;40.37;13.82
56270;BME280;42176;43.240;27.880;2022-07-22T07:48:48;100072.59;;;40.70;13.52
56270;BME280;42176;43.240;27.880;2022-07-22T07:51:14;100078.56;;;41.16;14.03
56270;BME280;42176;43.240;27.880;2022-07-22T07:53:39;100087.63;;;40.92;13.20
56270;BME280;42176;43.240;27.880;2022-07-22T07:56:05;100075.72;;;40.73;14.18
56270;BME280;42176;43.240;27.880;2022-07-22T07:58:31;100075.28;;;40.58;13.86
56270;BME280;42176;43.240;27.880;2022-07-22T08:00:56;100074.66;;;40.74;13.59
56270;BME280;42176;43.240;27.880;2022-07-22T08:03:22;100080.22;;;40.74;13.62
56270;BME280;42176;43.240;27.880;2022-07-22T08:05:47;100078.59;;;40.67;14.03
56270;BME280;42176;43.240;27.880;2022-07-22T08:08:13;100084.41;;;40.46;14.02
56270;BME280;42176;43.240;27.880;2022-07-22T08:10:38;100086.72;;;40.31;14.07
56270;BME280;42176;43.240;27.880;2022-07-22T08:13:04;100076.50;;;40.06;14.60
56270;BME280;42176;43.240;27.880;2022-07-22T08:15:30;100072.38;;;40.15;14.53
56270;BME280;42176;43.240;27.880;2022-07-22T08:17:56;100072.44;;;40.27;14.02
56270;BME280;42176;43.240;27.880;2022-07-22T08:20:24;100068.47;;;40.23;14.22
56270;BME280;42176;43.240;27.880;2022-07-22T08:22:51;100075.59;;;40.12;14.32
56270;BME280;42176;43.240;27.880;2022-07-22T08:25:18;100069.91;;;40.26;14.78
56270;BME280;42176;43.240;27.880;2022-07-22T08:27:43;100072.81;;;40.49;13.96
56270;BME280;42176;43.240;27.880;2022-07-22T08:30:09;100063.31;;;40.57;14.03
56270;BME280;42176;43.240;27.880;2022-07-22T08:32:35;100081.94;;;40.19;14.10
56270;BME280;42176;43.240;27.880;2022-07-22T08:35:04;100080.13;;;39.63;14.12
56270;BME280;42176;43.240;27.880;2022-07-22T08:37:29;100071.69;;;39.51;14.73
56270;BME280;42176;43.240;27.880;2022-07-22T08:39:55;100073.44;;;39.45;14.47
56270;BME280;42176;43.240;27.880;2022-07-22T08:42:22;100040.47;;;39.62;14.14
56270;BME280;42176;43.240;27.880;2022-07-22T08:44:48;100076.06;;;39.08;15.13
56270;BME280;42176;43.240;27.880;2022-07-22T08:47:14;100071.88;;;38.53;15.25
56270;BME280;42176;43.240;27.880;2022-07-22T08:49:40;100061.97;;;38.18;15.55
56270;BME280;42176;43.240;27.880;2022-07-22T08:52:05;100066.56;;;38.51;15.94
56270;BME280;42176;43.240;27.880;2022-07-22T08:54:31;100090.31;;;38.14;15.85
56270;BME280;42176;43.240;27.880;2022-07-22T08:56:56;100079.50;;;37.92;16.01
56270;BME280;42176;43.240;27.880;2022-07-22T08:59:22;100075.34;;;38.28;15.46
56270;BME280;42176;43.240;27.880;2022-07-22T09:04:26;100071.06;;;38.32;15.82
56270;BME280;42176;43.240;27.880;2022-07-22T09:06:51;100069.19;;;38.26;15.91
56270;BME280;42176;43.240;27.880;2022-07-22T09:09:29;100063.13;;;37.84;16.43
56270;BME280;42176;43.240;27.880;2022-07-22T09:12:06;100086.09;;;37.37;16.61
56270;BME280;42176;43.240;27.880;2022-07-22T09:14:49;100083.09;;;37.18;16.82
56270;BME280;42176;43.240;27.880;2022-07-22T09:17:25;100075.88;;;37.31;16.76
56270;BME280;42176;43.240;27.880;2022-07-22T09:19:51;100067.38;;;37.66;16.96
56270;BME280;42176;43.240;27.880;2022-07-22T09:22:40;100073.72;;;37.06;17.45
56270;BME280;42176;43.240;27.880;2022-07-22T09:27:46;100081.81;;;35.54;18.10
56270;BME280;42176;43.240;27.880;2022-07-22T09:30:19;100070.78;;;34.73;19.40
56270;BME280;42176;43.240;27.880;2022-07-22T09:32:45;100068.88;;;34.07;20.25
56270;BME280;42176;43.240;27.880;2022-07-22T09:35:11;100070.94;;;33.90;20.31
56270;BME280;42176;43.240;27.880;2022-07-22T09:37:47;100067.19;;;33.68;19.88
56270;BME280;42176;43.240;27.880;2022-07-22T09:45:17;100066.03;;;33.24;20.87
56270;BME280;42176;43.240;27.880;2022-07-22T09:47:44;100065.88;;;33.40;20.56
56270;BME280;42176;43.240;27.880;2022-07-22T09:52:46;100059.47;;;34.46;19.56
56270;BME280;42176;43.240;27.880;2022-07-22T09:55:16;100067.84;;;34.08;20.38
56270;BME280;42176;43.240;27.880;2022-07-22T09:57:43;100056.91;;;34.15;20.70
56270;BME280;42176;43.240;27.880;2022-07-22T10:00:09;100055.69;;;34.18;20.69
56270;BME280;42176;43.240;27.880;2022-07-22T10:02:41;100062.31;;;34.38;20.38
56270;BME280;42176;43.240;27.880;2022-07-22T10:05:11;100053.88;;;34.76;20.44
56270;BME280;42176;43.240;27.880;2022-07-22T10:07:40;100047.75;;;34.96;19.86
56270;BME280;42176;43.240;27.880;2022-07-22T10:10:06;100058.13;;;34.42;20.61
56270;BME280;42176;43.240;27.880;2022-07-22T10:12:33;100047.88;;;34.36;20.77
56270;BME280;42176;43.240;27.880;2022-07-22T10:14:59;100047.72;;;33.93;20.78
56270;BME280;42176;43.240;27.880;2022-07-22T10:17:25;100044.94;;;33.78;21.30
56270;BME280;42176;43.240;27.880;2022-07-22T10:19:51;100047.03;;;34.21;21.04
56270;BME280;42176;43.240;27.880;2022-07-22T10:25:05;100041.91;;;33.88;21.14
56270;BME280;42176;43.240;27.880;2022-07-22T10:27:45;100043.03;;;33.63;22.17
56270;BME280;42176;43.240;27.880;2022-07-22T10:30:13;100036.97;;;33.30;22.13
56270;BME280;42176;43.240;27.880;2022-07-22T10:32:39;100039.03;;;33.28;22.29
56270;BME280;42176;43.240;27.880;2022-07-22T10:37:36;100037.78;;;33.38;22.07
56270;BME280;42176;43.240;27.880;2022-07-22T10:40:16;100042.03;;;33.41;20.89
56270;BME280;42176;43.240;27.880;2022-07-22T10:45:27;100017.91;;;33.28;21.38
56270;BME280;42176;43.240;27.880;2022-07-22T10:48:04;100028.34;;;33.71;21.13
56270;BME280;42176;43.240;27.880;2022-07-22T10:53:07;100032.31;;;33.68;22.09
56270;BME280;42176;43.240;27.880;2022-07-22T10:55:33;100027.66;;;33.54;21.40
56270;BME280;42176;43.240;27.880;2022-07-22T10:57:59;100023.41;;;33.81;20.81
56270;BME280;42176;43.240;27.880;2022-07-22T11:00:25;100027.91;;;33.97;21.09
56270;BME280;42176;43.240;27.880;2022-07-22T11:02:51;100013.97;;;34.14;21.00
56270;BME280;42176;43.240;27.880;2022-07-22T11:05:27;100005.50;;;33.70;20.23
56270;BME280;42176;43.240;27.880;2022-07-22T11:07:54;100027.59;;;33.77;19.96
56270;BME280;42176;43.240;27.880;2022-07-22T11:10:20;100028.75;;;33.98;19.53
56270;BME280;42176;43.240;27.880;2022-07-22T11:12:47;100026.63;;;33.70;20.37
56270;BME280;42176;43.240;27.880;2022-07-22T11:15:14;100043.66;;;33.50;20.69
56270;BME280;42176;43.240;27.880;2022-07-22T11:17:39;100034.88;;;33.32;20.38
56270;BME280;42176;43.240;27.880;2022-07-22T11:20:08;100043.06;;;33.40;21.33
56270;BME280;42176;43.240;27.880;2022-07-22T11:22:34;100042.44;;;33.68;20.86
56270;BME280;42176;43.240;27.880;2022-07-22T11:25:03;100014.78;;;33.54;20.87
56270;BME280;42176;43.240;27.880;2022-07-22T11:27:29;100048.41;;;33.57;21.39
56270;BME280;42176;43.240;27.880;2022-07-22T11:29:55;100069.53;;;33.56;20.60
56270;BME280;42176;43.240;27.880;2022-07-22T11:32:22;100050.69;;;33.68;19.55
56270;BME280;42176;43.240;27.880;2022-07-22T11:34:48;100028.50;;;33.54;18.01
56270;BME280;42176;43.240;27.880;2022-07-22T11:37:15;100041.94;;;33.49;19.37
56270;BME280;42176;43.240;27.880;2022-07-22T11:39:41;100040.84;;;33.59;20.88
56270;BME280;42176;43.240;27.880;2022-07-22T11:42:07;100044.09;;;33.39;21.32
56270;BME280;42176;43.240;27.880;2022-07-22T11:44:34;100037.31;;;33.27;21.33
56270;BME280;42176;43.240;27.880;2022-07-22T11:47:02;100035.94;;;33.99;20.33
56270;BME280;42176;43.240;27.880;2022-07-22T11:49:30;100058.59;;;34.31;20.36
56270;BME280;42176;43.240;27.880;2022-07-22T11:51:56;100041.03;;;34.32;19.95
56270;BME280;42176;43.240;27.880;2022-07-22T11:54:21;100032.09;;;34.60;20.17
56270;BME280;42176;43.240;27.880;2022-07-22T11:56:48;100031.56;;;34.50;20.16
56270;BME280;42176;43.240;27.880;2022-07-22T11:59:15;100041.81;;;34.56;19.59
56270;BME280;42176;43.240;27.880;2022-07-22T12:01:43;100030.81;;;33.96;19.98
56270;BME280;42176;43.240;27.880;2022-07-22T12:04:23;100030.41;;;33.69;20.98
56270;BME280;42176;43.240;27.880;2022-07-22T12:06:49;100021.59;;;33.59;20.75
56270;BME280;42176;43.240;27.880;2022-07-22T12:09:21;100022.78;;;33.94;20.72
56270;BME280;42176;43.240;27.880;2022-07-22T12:11:52;100020.56;;;33.60;21.25
56270;BME280;42176;43.240;27.880;2022-07-22T12:14:23;100022.56;;;33.28;21.88
56270;BME280;42176;43.240;27.880;2022-07-22T12:17:07;100022.59;;;32.81;22.84
56270;BME280;42176;43.240;27.880;2022-07-22T12:19:36;100012.31;;;33.21;22.05
56270;BME280;42176;43.240;27.880;2022-07-22T12:22:03;100020.16;;;32.78;22.46
56270;BME280;42176;43.240;27.880;2022-07-22T12:24:33;100014.06;;;32.68;22.61
56270;BME280;42176;43.240;27.880;2022-07-22T12:27:18;100024.63;;;33.25;22.12
56270;BME280;42176;43.240;27.880;2022-07-22T12:29:45;100011.28;;;33.61;21.49
56270;BME280;42176;43.240;27.880;2022-07-22T12:32:31;100006.72;;;33.68;21.12
56270;BME280;42176;43.240;27.880;2022-07-22T12:35:01;100012.41;;;33.66;21.19
56270;BME280;42176;43.240;27.880;2022-07-22T12:37:29;100013.63;;;33.64;21.04
56270;BME280;42176;43.240;27.880;2022-07-22T12:39:59;100024.63;;;33.64;22.68
56270;BME280;42176;43.240;27.880;2022-07-22T12:42:27;100013.94;;;33.31;29.25
56270;BME280;42176;43.240;27.880;2022-07-22T12:45:00;100012.50;;;33.35;26.98
56270;BME280;42176;43.240;27.880;2022-07-22T12:52:46;100006.94;;;34.11;28.40
56270;BME280;42176;43.240;27.880;2022-07-22T12:55:12;100007.09;;;33.65;30.75
56270;BME280;42176;43.240;27.880;2022-07-22T12:57:38;100014.00;;;32.84;33.45
56270;BME280;42176;43.240;27.880;2022-07-22T13:00:06;100009.97;;;31.84;36.41
56270;BME280;42176;43.240;27.880;2022-07-22T13:02:36;100017.56;;;31.32;38.69
56270;BME280;42176;43.240;27.880;2022-07-22T13:05:02;100008.69;;;31.13;39.11
56270;BME280;42176;43.240;27.880;2022-07-22T13:07:27;100004.31;;;30.10;40.80
56270;BME280;42176;43.240;27.880;2022-07-22T13:09:53;99989.94;;;29.47;42.93